Raceland, Louisiana
Current Conditions -  °F | °C
As of 6:47 AM on Sunday 23 Nov 2014 (Local Time) from KHUM Reporting Station
Haze Haze  
Wind Chill: 63°   Ceiling: 1000
Heat Index: 63°   Visibility: 4mi
Dew Point: 63°   Wind: 9mph
Humidity: 100%   Direction: 220°SW
Pressure: 29.76"   Gusts: NA
Location:  29.73°N, 90.61°W
Report Text: KHUM 231247Z 22008KT 4SM BR BKN010 17/17 A2976 RMK RY12/30 CLOSED ATIS Y ILS/RY18 MS
Loading
Personal Weather Stations






























Interactive Weather Map New forecast layout! Learn more

10-Day Weather Forecast

Advertisements
Track Severe Weather on mobile